createdAt,value
2023-04-27T00:02:44.545Z,98975.13
2023-04-27T00:05:57.312Z,98978.50
2023-04-27T00:09:10.103Z,98984.08
2023-04-27T00:12:22.615Z,98975.25
2023-04-27T00:15:35.056Z,98979.89
2023-04-27T00:18:47.131Z,98981.25
2023-04-27T00:22:00.661Z,98978.53
2023-04-27T00:25:14.968Z,98979.47
2023-04-27T00:28:27.550Z,98979.77
2023-04-27T00:31:39.690Z,98971.78
2023-04-27T00:34:52.480Z,98971.16
2023-04-27T00:38:04.580Z,98973.87
2023-04-27T00:41:18.644Z,98977.47
2023-04-27T00:44:34.715Z,98974.09
2023-04-27T00:47:48.762Z,98980.21
2023-04-27T00:51:01.175Z,98977.66
2023-04-27T00:54:13.713Z,98975.98
2023-04-27T00:57:26.631Z,98989.04
2023-04-27T01:00:41.882Z,98977.14
2023-04-27T01:03:55.132Z,98983.78
2023-04-27T01:07:08.455Z,98985.45
2023-04-27T01:10:20.675Z,98989.98
2023-04-27T01:13:33.272Z,98986.61
2023-04-27T01:16:47.551Z,98991.34
2023-04-27T01:20:02.744Z,98992.83
2023-04-27T01:23:16.770Z,98996.61
2023-04-27T01:26:28.964Z,99003.36
2023-04-27T01:29:41.451Z,99006.92
2023-04-27T01:32:54.775Z,99002.62
2023-04-27T01:36:07.241Z,99002.80
2023-04-27T01:39:19.306Z,99003.66
2023-04-27T01:42:31.450Z,99004.80
2023-04-27T01:45:43.599Z,99002.28
2023-04-27T01:48:55.657Z,99004.17
2023-04-27T01:52:08.160Z,99006.80
2023-04-27T01:55:20.621Z,99009.44
2023-04-27T01:58:34.022Z,99009.63
2023-04-27T02:01:46.274Z,99007.73
2023-04-27T02:04:58.745Z,99013.41
2023-04-27T02:08:11.953Z,99013.06
2023-04-27T02:11:24.257Z,99015.91
2023-04-27T02:14:36.383Z,99013.28
2023-04-27T02:17:48.648Z,99010.83
2023-04-27T02:21:01.106Z,99008.60
2023-04-27T02:24:15.547Z,99008.08
2023-04-27T02:27:29.978Z,99011.84
2023-04-27T02:30:44.923Z,99012.03
2023-04-27T02:33:58.151Z,99019.39
2023-04-27T02:37:10.685Z,99012.64
2023-04-27T02:40:22.986Z,99018.50
2023-04-27T02:43:35.145Z,99021.13
2023-04-27T02:46:49.347Z,99017.94
2023-04-27T02:50:02.209Z,99023.19
2023-04-27T02:53:16.743Z,99014.84
2023-04-27T02:56:28.961Z,99016.08
2023-04-27T02:59:41.193Z,99022.30
2023-04-27T03:02:53.716Z,99018.92
2023-04-27T03:06:06.121Z,99019.09
2023-04-27T03:09:18.412Z,99025.10
2023-04-27T03:12:30.686Z,99027.19
2023-04-27T03:15:46.069Z,99037.88
2023-04-27T03:18:58.217Z,99031.87
2023-04-27T03:22:10.586Z,99041.63
2023-04-27T03:25:22.946Z,99037.23
2023-04-27T03:28:35.295Z,99041.63
2023-04-27T03:31:47.593Z,99046.81
2023-04-27T03:34:59.765Z,99046.99
2023-04-27T03:38:11.982Z,99049.52
2023-04-27T03:41:24.153Z,99053.84
2023-04-27T03:44:37.701Z,99045.01
2023-04-27T03:47:50.048Z,99054.59
2023-04-27T03:51:03.784Z,99060.60
2023-04-27T03:54:16.103Z,99067.36
2023-04-27T03:57:28.254Z,99060.02
2023-04-27T04:00:41.106Z,99065.74
2023-04-27T04:03:53.546Z,99073.34
2023-04-27T04:07:06.226Z,99064.33
2023-04-27T04:10:19.163Z,99067.70
2023-04-27T04:13:33.205Z,99073.50
2023-04-27T04:16:45.415Z,99060.36
2023-04-27T04:19:58.532Z,99080.83
2023-04-27T04:23:12.482Z,99082.32
2023-04-27T04:26:25.094Z,99083.03
2023-04-27T04:29:37.816Z,99087.27
2023-04-27T04:32:50.149Z,99088.65
2023-04-27T04:36:03.473Z,99089.22
2023-04-27T04:39:16.778Z,99091.00
2023-04-27T04:42:29.527Z,99092.59
2023-04-27T04:45:42.357Z,99096.50
2023-04-27T04:48:55.379Z,99101.48
2023-04-27T04:52:08.344Z,99107.48
2023-04-27T04:55:20.764Z,99105.84
2023-04-27T04:58:32.824Z,99105.45
2023-04-27T05:01:45.152Z,99096.41
2023-04-27T05:04:57.958Z,99101.27
2023-04-27T05:08:11.151Z,99104.47
2023-04-27T05:11:23.470Z,99105.91
2023-04-27T05:14:35.603Z,99114.38
2023-04-27T05:17:47.881Z,99116.27
2023-04-27T05:21:00.028Z,99107.26
2023-04-27T05:24:13.524Z,99111.74
2023-04-27T05:27:25.668Z,99111.75
2023-04-27T05:30:37.939Z,99120.83
2023-04-27T05:33:50.352Z,99119.86
2023-04-27T05:37:02.558Z,99125.95
2023-04-27T05:40:17.375Z,99127.97
2023-04-27T05:43:30.205Z,99134.52
2023-04-27T05:46:43.171Z,99130.80
2023-04-27T05:49:59.398Z,99130.78
2023-04-27T05:53:12.027Z,99142.50
2023-04-27T05:56:24.404Z,99142.72
2023-04-27T05:59:36.564Z,99134.73
2023-04-27T06:02:48.957Z,99136.06
2023-04-27T06:06:04.912Z,99132.77
2023-04-27T06:09:17.011Z,99141.13
2023-04-27T06:12:29.219Z,99132.69
2023-04-27T06:15:41.766Z,99124.63
2023-04-27T06:18:56.633Z,99132.19
2023-04-27T06:22:08.773Z,99129.42
2023-04-27T06:25:20.815Z,99121.88
2023-04-27T06:28:34.211Z,99113.42
2023-04-27T06:31:47.610Z,99117.89
2023-04-27T06:34:59.809Z,99104.64
2023-04-27T06:38:12.622Z,99107.67
2023-04-27T06:41:24.809Z,99100.52
2023-04-27T06:44:36.877Z,99099.41
2023-04-27T06:47:49.271Z,99088.28
2023-04-27T06:51:01.603Z,99092.30
2023-04-27T06:54:14.516Z,99091.56
2023-04-27T06:57:27.381Z,99089.17
2023-04-27T07:00:40.508Z,99082.78
2023-04-27T07:03:53.089Z,99082.67
2023-04-27T07:07:05.946Z,99079.50
2023-04-27T07:10:18.557Z,99076.69
2023-04-27T07:13:30.984Z,99087.67
2023-04-27T07:16:44.526Z,99092.79
2023-04-27T07:19:56.688Z,99078.47
2023-04-27T07:23:09.342Z,99081.53
2023-04-27T07:26:21.759Z,99075.17
2023-04-27T07:29:34.310Z,99075.30
2023-04-27T07:32:48.474Z,99089.47
2023-04-27T07:36:02.347Z,99091.88
2023-04-27T07:39:15.053Z,99094.98
2023-04-27T07:42:28.009Z,99096.49
2023-04-27T07:45:41.867Z,99090.55
2023-04-27T07:48:55.582Z,99099.17
2023-04-27T07:52:08.712Z,99097.30
2023-04-27T07:55:21.745Z,99087.50
2023-04-27T07:58:33.847Z,99112.14
2023-04-27T08:01:45.947Z,99112.29
2023-04-27T08:04:58.938Z,99116.28
2023-04-27T08:08:11.962Z,99118.16
2023-04-27T08:11:24.140Z,99119.58
2023-04-27T08:14:36.749Z,99123.85
2023-04-27T08:17:49.374Z,99127.73
2023-04-27T08:21:01.925Z,99132.64
2023-04-27T08:24:15.001Z,99132.20
2023-04-27T08:27:27.182Z,99129.38
2023-04-27T08:30:39.755Z,99119.59
2023-04-27T08:33:52.633Z,99107.95
2023-04-27T08:37:04.737Z,99111.73
2023-04-27T08:40:20.128Z,99133.63
2023-04-27T08:43:39.907Z,99116.20
2023-04-27T08:46:52.220Z,99128.89
2023-04-27T08:50:05.826Z,99126.66
2023-04-27T08:53:27.028Z,99138.92
2023-04-27T08:56:39.778Z,99132.70
2023-04-27T09:00:06.497Z,99132.45
2023-04-27T09:03:29.049Z,99131.04
2023-04-27T09:06:42.054Z,99125.34
2023-04-27T09:09:54.740Z,99121.97
2023-04-27T09:13:07.749Z,99110.88
2023-04-27T09:16:21.218Z,99100.66
2023-04-27T09:19:36.772Z,99083.03
2023-04-27T09:22:55.294Z,99055.78
2023-04-27T09:26:09.915Z,99065.80
2023-04-27T09:29:22.145Z,99063.48
2023-04-27T09:32:34.420Z,99073.17
2023-04-27T09:35:48.322Z,99083.92
2023-04-27T09:39:01.159Z,99076.87
2023-04-27T09:42:16.084Z,99059.70
2023-04-27T09:45:29.172Z,99067.53
2023-04-27T09:48:43.236Z,99082.92
2023-04-27T09:51:56.243Z,99085.95
2023-04-27T09:55:13.543Z,99105.05
2023-04-27T09:59:07.964Z,99107.97
2023-04-27T10:02:25.602Z,99115.64
2023-04-27T10:06:01.392Z,99117.69
2023-04-27T10:09:15.311Z,99113.94
2023-04-27T10:12:32.713Z,99105.98
2023-04-27T10:15:45.403Z,99097.96
2023-04-27T10:19:02.707Z,99090.17
2023-04-27T10:22:17.186Z,99076.23
2023-04-27T10:25:33.442Z,99080.48
2023-04-27T10:28:48.606Z,99077.95
2023-04-27T10:32:00.874Z,99081.17
2023-04-27T10:35:15.045Z,99076.31
2023-04-27T10:38:33.430Z,99069.13
2023-04-27T10:41:55.431Z,99068.02
2023-04-27T10:45:08.409Z,99069.42
2023-04-27T10:48:22.032Z,99072.41
2023-04-27T10:51:34.367Z,99077.31
2023-04-27T10:54:51.360Z,99073.64
2023-04-27T10:58:02.600Z,99083.64
2023-04-27T11:01:14.954Z,99089.16
2023-04-27T11:04:27.996Z,99090.00
2023-04-27T11:07:40.312Z,99095.04
2023-04-27T11:10:54.847Z,99095.46
2023-04-27T11:14:08.256Z,99091.38
2023-04-27T11:17:21.018Z,99094.83
2023-04-27T11:20:34.130Z,99112.68
2023-04-27T11:23:47.366Z,99110.53
2023-04-27T11:27:04.450Z,99134.23
2023-04-27T11:30:27.474Z,99145.20
2023-04-27T11:33:40.033Z,99150.52
2023-04-27T11:40:24.479Z,99152.97
2023-04-27T11:43:35.099Z,99151.84
2023-04-27T11:46:50.849Z,99150.67
2023-04-27T11:50:05.194Z,99151.64
2023-04-27T11:53:18.817Z,99156.53
2023-04-27T11:56:35.261Z,99156.27
2023-04-27T11:59:47.710Z,99153.64
2023-04-27T12:02:59.903Z,99152.02
2023-04-27T12:06:31.856Z,99147.15
2023-04-27T12:09:26.890Z,99141.13
2023-04-27T12:12:39.101Z,99138.47
2023-04-27T12:15:51.303Z,99134.39
2023-04-27T12:19:03.921Z,99124.73
2023-04-27T12:22:16.573Z,99107.22
2023-04-27T12:25:29.273Z,99102.30
2023-04-27T12:28:41.720Z,99098.10
2023-04-27T12:31:54.113Z,99092.59
2023-04-27T12:35:06.593Z,99102.50
2023-04-27T12:38:18.617Z,99091.51
2023-04-27T12:41:31.005Z,99095.35
2023-04-27T12:44:43.174Z,99082.34
2023-04-27T12:48:03.559Z,99090.17
2023-04-27T12:54:13.368Z,99099.66
2023-04-27T12:57:26.949Z,99104.02
2023-04-27T13:00:39.451Z,99107.81
2023-04-27T13:03:53.596Z,99101.47
2023-04-27T13:07:06.738Z,99102.48
2023-04-27T13:10:19.284Z,99117.34
2023-04-27T13:13:32.046Z,99117.69
2023-04-27T13:16:44.844Z,99126.59
2023-04-27T13:19:57.167Z,99132.86
2023-04-27T13:23:11.332Z,99121.39
2023-04-27T13:26:24.423Z,99121.69
2023-04-27T13:29:36.650Z,99120.99
2023-04-27T13:32:49.497Z,99116.08
2023-04-27T13:36:02.754Z,99113.02
2023-04-27T13:39:15.122Z,99103.42
2023-04-27T13:42:29.887Z,99092.84
2023-04-27T13:45:42.882Z,99077.66
2023-04-27T13:48:54.945Z,99077.45
2023-04-27T13:52:08.743Z,99080.80
2023-04-27T13:55:23.480Z,99084.77
2023-04-27T14:07:38.678Z,99091.64
2023-04-27T14:10:53.331Z,99113.70
2023-04-27T14:14:07.072Z,99116.08
2023-04-27T14:17:19.260Z,99123.63
2023-04-27T14:20:31.932Z,99129.50
2023-04-27T14:56:15.274Z,99156.84
2023-04-27T14:59:27.486Z,99157.91
2023-04-27T15:02:40.045Z,99163.25
2023-04-27T15:05:52.392Z,99157.40
2023-04-27T15:09:04.825Z,99155.17
2023-04-27T15:12:17.954Z,99160.73
2023-04-27T15:15:30.572Z,99155.81
2023-04-27T15:18:43.474Z,99159.47
2023-04-27T15:21:55.671Z,99154.58
2023-04-27T15:25:08.781Z,99156.84
2023-04-27T15:28:20.975Z,99156.04
2023-04-27T15:31:33.152Z,99156.17
2023-04-27T15:34:46.292Z,99144.84
2023-04-27T15:37:59.481Z,99149.35
2023-04-27T15:41:12.321Z,99151.61
2023-04-27T15:44:24.448Z,99152.71
2023-04-27T15:47:36.752Z,99155.23
2023-04-27T15:50:53.364Z,99162.80
2023-04-27T15:54:06.849Z,99150.51
2023-04-27T15:57:19.463Z,99151.77
2023-04-27T16:00:32.289Z,99153.17
2023-04-27T16:03:44.567Z,99159.45
2023-04-27T16:06:57.034Z,99144.61
2023-04-27T16:10:11.552Z,99157.34
2023-04-27T16:13:24.076Z,99152.16
2023-04-27T16:16:36.258Z,99150.76
2023-04-27T16:19:49.635Z,99157.16
2023-04-27T16:23:01.835Z,99165.26
2023-04-27T16:26:14.033Z,99157.40
2023-04-27T16:29:26.268Z,99166.05
2023-04-27T16:32:38.483Z,99164.29
2023-04-27T16:35:50.962Z,99165.28
2023-04-27T16:39:05.263Z,99174.09
2023-04-27T16:42:19.650Z,99170.14
2023-04-27T16:45:31.766Z,99178.59
2023-04-27T16:48:44.206Z,99179.69
2023-04-27T16:51:57.218Z,99183.33
2023-04-27T16:55:11.980Z,99179.78
2023-04-27T17:01:24.890Z,99186.41
2023-04-27T17:04:40.435Z,99192.44
2023-04-27T17:07:53.534Z,99192.75
2023-04-27T17:11:07.448Z,99195.33
2023-04-27T17:14:20.911Z,99194.75
2023-04-27T17:17:39.204Z,99203.66
2023-04-27T17:20:51.580Z,99207.30
2023-04-27T17:24:03.986Z,99209.23
2023-04-27T17:27:16.680Z,99207.53
2023-04-27T17:30:29.131Z,99212.13
2023-04-27T17:33:43.824Z,99215.39
2023-04-27T17:36:57.088Z,99216.03
2023-04-27T17:40:11.189Z,99218.47
2023-04-27T17:43:23.282Z,99220.91
2023-04-27T17:46:35.465Z,99218.98
2023-04-27T17:49:47.694Z,99230.08
2023-04-27T17:52:59.923Z,99229.84
2023-04-27T17:56:13.141Z,99235.97
2023-04-27T17:59:25.474Z,99234.07
2023-04-27T18:02:45.282Z,99243.00
2023-04-27T18:05:57.821Z,99245.81
2023-04-27T18:09:10.557Z,99247.48
2023-04-27T18:12:22.863Z,99244.56
2023-04-27T18:15:35.140Z,99244.70
2023-04-27T18:18:47.588Z,99246.75
2023-04-27T18:21:59.756Z,99249.89
2023-04-27T18:25:14.700Z,99261.69
2023-04-27T18:28:26.770Z,99257.13
2023-04-27T18:31:38.880Z,99265.64
2023-04-27T18:34:50.990Z,99263.59
2023-04-27T18:38:03.804Z,99273.59
2023-04-27T18:41:16.524Z,99265.99
2023-04-27T18:44:28.777Z,99274.91
2023-04-27T18:47:41.015Z,99276.70
2023-04-27T18:50:53.354Z,99276.83
2023-04-27T18:57:18.571Z,99283.20
2023-04-27T19:00:32.229Z,99280.89
2023-04-27T19:03:45.507Z,99285.46
2023-04-27T19:06:57.788Z,99281.14
2023-04-27T19:10:13.974Z,99278.16
2023-04-27T19:13:26.282Z,99272.61
2023-04-27T19:16:38.672Z,99274.41
2023-04-27T19:19:51.412Z,99273.46
2023-04-27T19:23:03.633Z,99280.67
2023-04-27T19:26:15.873Z,99283.06
2023-04-27T19:29:30.806Z,99284.25
2023-04-27T19:32:43.938Z,99287.83
2023-04-27T19:35:58.497Z,99281.97
2023-04-27T19:39:11.487Z,99282.06
2023-04-27T19:42:25.258Z,99276.59
2023-04-27T19:45:38.997Z,99283.91
2023-04-27T19:48:51.508Z,99284.48
2023-04-27T19:52:04.032Z,99283.71
2023-04-27T19:55:17.667Z,99277.78
2023-04-27T19:58:29.842Z,99278.42
2023-04-27T20:01:42.455Z,99282.05
2023-04-27T20:04:54.994Z,99286.56
2023-04-27T20:08:08.008Z,99289.81
2023-04-27T20:11:20.922Z,99293.50
2023-04-27T20:14:35.426Z,99290.24
2023-04-27T20:17:47.822Z,99295.52
2023-04-27T20:21:03.427Z,99301.45
2023-04-27T20:24:16.628Z,99301.73
2023-04-27T20:27:29.471Z,99308.39
2023-04-27T20:30:41.397Z,99306.28
2023-04-27T20:33:54.051Z,99304.98
2023-04-27T20:37:06.210Z,99308.14
2023-04-27T20:40:21.949Z,99308.55
2023-04-27T20:43:34.095Z,99314.45
2023-04-27T20:46:46.484Z,99322.70
2023-04-27T20:49:58.580Z,99322.66
2023-04-27T20:53:10.690Z,99322.77
2023-04-27T20:56:23.179Z,99327.69
2023-04-27T20:59:35.671Z,99324.48
2023-04-27T21:02:48.701Z,99324.95
2023-04-27T21:06:01.030Z,99324.78
2023-04-27T21:09:13.304Z,99329.59
2023-04-27T21:12:25.654Z,99327.56
2023-04-27T21:15:37.989Z,99326.25
2023-04-27T21:18:50.163Z,99324.75
2023-04-27T21:22:02.686Z,99322.15
2023-04-27T21:25:16.527Z,99329.98
2023-04-27T21:28:28.642Z,99337.80
2023-04-27T21:31:41.176Z,99335.91
2023-04-27T21:34:53.266Z,99330.82
2023-04-27T21:38:05.667Z,99338.92
2023-04-27T21:41:17.777Z,99333.66
2023-04-27T21:44:29.966Z,99333.84
2023-04-27T21:47:42.399Z,99335.65
2023-04-27T21:50:54.790Z,99345.81
2023-04-27T21:54:06.865Z,99339.96
2023-04-27T21:57:20.034Z,99343.28
2023-04-27T22:00:33.730Z,99343.72
2023-04-27T22:03:46.034Z,99344.20
2023-04-27T22:06:58.396Z,99340.16
2023-04-27T22:10:12.341Z,99347.02
2023-04-27T22:13:24.439Z,99346.55
2023-04-27T22:16:36.913Z,99356.20
2023-04-27T22:19:49.402Z,99351.91
2023-04-27T22:23:01.769Z,99357.27
2023-04-27T22:26:14.018Z,99363.71
2023-04-27T22:29:26.091Z,99360.98
2023-04-27T22:32:38.534Z,99363.42
2023-04-27T22:35:51.009Z,99357.50
2023-04-27T22:39:03.288Z,99358.22
2023-04-27T22:42:15.432Z,99362.98
2023-04-27T22:45:27.419Z,99363.18
2023-04-27T22:48:39.562Z,99364.80
2023-04-27T22:51:51.848Z,99360.81
2023-04-27T22:55:03.944Z,99357.42
2023-04-27T22:58:15.873Z,99367.77
2023-04-27T23:01:27.832Z,99360.91
2023-04-27T23:04:41.476Z,99367.63
2023-04-27T23:07:54.104Z,99361.92
2023-04-27T23:11:06.400Z,99359.70
2023-04-27T23:14:18.514Z,99357.11
2023-04-27T23:17:32.032Z,99358.38
2023-04-27T23:20:44.270Z,99360.81
2023-04-27T23:23:56.320Z,99358.28
2023-04-27T23:27:08.283Z,99354.08
2023-04-27T23:30:21.292Z,99350.56
2023-04-27T23:33:33.799Z,99344.74
2023-04-27T23:36:45.967Z,99348.69
2023-04-27T23:39:57.905Z,99343.72
2023-04-27T23:43:10.500Z,99340.70
2023-04-27T23:46:22.695Z,99334.95
2023-04-27T23:49:34.776Z,99334.09
2023-04-27T23:52:46.732Z,99331.92
2023-04-27T23:55:58.845Z,99323.55
2023-04-27T23:59:11.363Z,99331.27
